createdAt,value
2023-05-24T00:00:46.735Z,17.94
2023-05-24T00:03:15.685Z,17.90
2023-05-24T00:05:43.722Z,17.92
2023-05-24T00:08:11.445Z,17.91
2023-05-24T00:10:39.219Z,17.89
2023-05-24T00:13:07.109Z,17.89
2023-05-24T00:15:34.900Z,17.90
2023-05-24T00:18:02.674Z,17.88
2023-05-24T00:20:30.449Z,17.84
2023-05-24T00:22:58.172Z,17.84
2023-05-24T00:25:26.076Z,17.87
2023-05-24T00:27:53.909Z,17.89
2023-05-24T00:30:21.563Z,17.90
2023-05-24T00:32:49.274Z,17.93
2023-05-24T00:35:17.072Z,17.97
2023-05-24T00:37:45.523Z,17.97
2023-05-24T00:40:13.556Z,17.97
2023-05-24T00:42:41.601Z,17.99
2023-05-24T00:45:09.842Z,18.04
2023-05-24T00:47:37.763Z,18.07
2023-05-24T00:50:06.236Z,18.07
2023-05-24T00:52:34.463Z,18.07
2023-05-24T00:55:02.799Z,18.08
2023-05-24T00:57:30.663Z,18.08
2023-05-24T00:59:58.397Z,18.09
2023-05-24T01:02:26.239Z,18.11
2023-05-24T01:04:56.314Z,18.14
2023-05-24T01:07:49.094Z,18.16
2023-05-24T01:10:31.885Z,18.18
2023-05-24T01:13:08.570Z,18.16
2023-05-24T01:15:58.921Z,18.18
2023-05-24T01:18:34.179Z,18.21
2023-05-24T01:21:16.256Z,18.22
2023-05-24T01:24:13.221Z,18.22
2023-05-24T01:26:52.612Z,18.24
2023-05-24T01:29:20.304Z,18.26
2023-05-24T01:31:48.227Z,18.24
2023-05-24T01:34:15.987Z,18.23
2023-05-24T01:36:43.706Z,18.21
2023-05-24T01:39:12.767Z,18.20
2023-05-24T01:41:52.499Z,18.17
2023-05-24T01:44:28.025Z,18.12
2023-05-24T01:47:05.041Z,18.10
2023-05-24T01:49:35.490Z,18.07
2023-05-24T01:52:07.606Z,18.05
2023-05-24T01:54:38.289Z,18.03
2023-05-24T01:57:07.821Z,17.97
2023-05-24T01:59:36.810Z,17.93
2023-05-24T02:02:04.672Z,17.90
2023-05-24T02:04:32.363Z,17.88
2023-05-24T02:07:00.184Z,17.90
2023-05-24T02:09:27.977Z,17.91
2023-05-24T02:11:55.995Z,17.89
2023-05-24T02:14:24.605Z,17.89
2023-05-24T02:16:52.534Z,17.85
2023-05-24T02:19:20.543Z,17.81
2023-05-24T02:21:48.390Z,17.77
2023-05-24T02:24:16.643Z,17.73
2023-05-24T02:26:44.474Z,17.70
2023-05-24T02:29:12.436Z,17.70
2023-05-24T02:31:40.899Z,17.69
2023-05-24T02:34:09.247Z,17.71
2023-05-24T02:36:37.486Z,17.71
2023-05-24T02:39:06.142Z,17.69
2023-05-24T02:41:33.930Z,17.71
2023-05-24T02:44:01.828Z,17.72
2023-05-24T02:46:29.916Z,17.73
2023-05-24T02:48:57.899Z,17.73
2023-05-24T02:51:25.706Z,17.75
2023-05-24T02:53:54.657Z,17.79
2023-05-24T02:56:23.218Z,17.81
2023-05-24T02:58:54.348Z,17.84
2023-05-24T03:01:23.293Z,17.90
2023-05-24T03:03:53.157Z,17.96
2023-05-24T03:06:21.952Z,18.01
2023-05-24T03:08:50.709Z,18.08
2023-05-24T03:11:22.351Z,18.18
2023-05-24T03:13:50.927Z,18.26
2023-05-24T03:16:19.994Z,18.32
2023-05-24T03:18:52.130Z,18.39
2023-05-24T03:21:21.394Z,18.39
2023-05-24T03:23:50.189Z,18.40
2023-05-24T03:26:20.752Z,18.43
2023-05-24T03:28:50.626Z,18.44
2023-05-24T03:31:21.833Z,18.47
2023-05-24T03:33:50.042Z,18.48
2023-05-24T03:36:18.439Z,18.45
2023-05-24T03:38:46.971Z,18.38
2023-05-24T03:41:16.364Z,18.32
2023-05-24T03:43:44.616Z,18.27
2023-05-24T03:46:17.286Z,18.27
2023-05-24T03:48:49.094Z,18.28
2023-05-24T03:51:19.080Z,18.30
2023-05-24T03:53:49.907Z,18.38
2023-05-24T03:56:20.877Z,18.53
2023-05-24T03:58:55.305Z,18.65
2023-05-24T04:01:33.255Z,18.76
2023-05-24T04:04:06.889Z,18.85
2023-05-24T04:06:37.854Z,18.92
2023-05-24T04:09:10.218Z,18.97
2023-05-24T04:11:41.889Z,19.02
2023-05-24T04:14:15.866Z,19.07
2023-05-24T04:16:47.968Z,19.11
2023-05-24T04:19:19.355Z,19.16
2023-05-24T04:21:50.864Z,19.24
2023-05-24T04:24:21.208Z,19.33
2023-05-24T04:26:51.886Z,19.45
2023-05-24T04:29:26.853Z,19.54
2023-05-24T04:32:00.876Z,19.60
2023-05-24T04:34:40.834Z,19.66
2023-05-24T04:37:14.883Z,19.67
2023-05-24T04:39:48.876Z,19.61
2023-05-24T04:42:19.910Z,19.57
2023-05-24T04:44:54.855Z,19.55
2023-05-24T04:47:26.901Z,19.54
2023-05-24T04:49:57.869Z,19.54
2023-05-24T04:52:30.892Z,19.55
2023-05-24T05:02:31.461Z,19.61
2023-05-24T05:04:59.761Z,19.64
2023-05-24T05:07:27.492Z,19.65
2023-05-24T05:09:55.780Z,19.61
2023-05-24T05:12:23.493Z,19.60
2023-05-24T05:14:51.438Z,19.60
2023-05-24T05:17:19.263Z,19.61
2023-05-24T05:19:47.360Z,19.62
2023-05-24T05:22:16.803Z,19.62
2023-05-24T05:24:45.140Z,19.65
2023-05-24T05:27:13.796Z,19.70
2023-05-24T05:29:41.982Z,19.71
2023-05-24T05:32:10.232Z,19.76
2023-05-24T05:34:38.554Z,19.83
2023-05-24T05:37:07.746Z,19.86
2023-05-24T05:39:38.286Z,19.88
2023-05-24T05:42:06.758Z,19.95
2023-05-24T05:44:34.847Z,20.07
2023-05-24T05:47:05.252Z,20.14
2023-05-24T05:49:36.522Z,20.27
2023-05-24T05:52:07.736Z,20.55
2023-05-24T05:54:36.563Z,20.84
2023-05-24T05:57:04.417Z,21.02
2023-05-24T05:59:36.180Z,21.17
2023-05-24T06:02:05.989Z,21.35
2023-05-24T06:04:34.296Z,21.56
2023-05-24T06:07:03.278Z,21.83
2023-05-24T06:09:31.399Z,22.16
2023-05-24T06:11:59.689Z,22.33
2023-05-24T06:14:27.430Z,22.42
2023-05-24T06:16:56.169Z,22.57
2023-05-24T06:19:25.700Z,22.80
2023-05-24T06:21:57.765Z,23.03
2023-05-24T06:24:29.681Z,23.27
2023-05-24T06:26:59.294Z,23.26
2023-05-24T06:29:27.812Z,23.14
2023-05-24T06:32:01.105Z,23.04
2023-05-24T06:34:29.999Z,22.96
2023-05-24T06:36:58.974Z,22.83
2023-05-24T06:39:34.935Z,22.75
2023-05-24T06:42:03.386Z,22.71
2023-05-24T06:44:37.255Z,22.55
2023-05-24T06:47:06.549Z,22.45
2023-05-24T06:49:34.755Z,22.50
2023-05-24T06:52:02.562Z,22.67
2023-05-24T06:54:31.234Z,22.83
2023-05-24T06:56:59.359Z,22.82
2023-05-24T06:59:27.787Z,22.84
2023-05-24T07:01:59.552Z,22.85
2023-05-24T07:04:29.829Z,22.84
2023-05-24T07:06:58.378Z,22.80
2023-05-24T07:09:26.343Z,22.80
2023-05-24T07:11:54.185Z,22.86
2023-05-24T07:14:24.317Z,23.13
2023-05-24T07:16:52.306Z,23.49
2023-05-24T07:19:22.330Z,23.89
2023-05-24T07:22:07.529Z,24.16
2023-05-24T07:24:37.397Z,24.38
2023-05-24T07:27:05.596Z,24.66
2023-05-24T07:29:33.415Z,25.05
2023-05-24T07:32:01.357Z,25.25
2023-05-24T07:34:30.382Z,25.26
2023-05-24T07:37:01.036Z,25.21
2023-05-24T07:39:29.008Z,24.99
2023-05-24T07:41:56.970Z,24.80
2023-05-24T07:44:24.711Z,24.70
2023-05-24T07:46:53.059Z,24.62
2023-05-24T07:49:21.182Z,24.59
2023-05-24T07:51:50.597Z,24.52
2023-05-24T07:54:19.027Z,24.36
2023-05-24T07:56:47.441Z,24.15
2023-05-24T07:59:15.742Z,23.85
2023-05-24T08:01:45.779Z,23.65
2023-05-24T08:04:13.662Z,23.47
2023-05-24T08:06:42.060Z,23.28
2023-05-24T08:09:10.903Z,23.12
2023-05-24T08:11:38.940Z,23.01
2023-05-24T08:14:06.737Z,22.87
2023-05-24T08:16:34.574Z,22.71
2023-05-24T08:19:03.281Z,22.50
2023-05-24T08:21:31.421Z,22.42
2023-05-24T08:24:16.575Z,22.36
2023-05-24T08:26:46.977Z,22.40
2023-05-24T08:29:37.208Z,22.46
2023-05-24T08:32:09.687Z,22.64
2023-05-24T08:34:37.870Z,22.88
2023-05-24T08:37:07.355Z,23.21
2023-05-24T08:39:36.257Z,23.37
2023-05-24T08:42:09.725Z,23.37
2023-05-24T08:44:47.713Z,23.28
2023-05-24T08:47:57.103Z,23.15
2023-05-24T08:50:25.152Z,23.00
2023-05-24T08:52:53.367Z,22.87
2023-05-24T08:55:21.232Z,22.72
2023-05-24T08:57:49.140Z,22.57
2023-05-24T09:00:18.597Z,22.45
2023-05-24T09:03:13.049Z,22.37
2023-05-24T09:05:45.081Z,22.31
2023-05-24T09:08:18.251Z,22.25
2023-05-24T09:10:54.956Z,22.18
2023-05-24T09:13:25.175Z,22.14
2023-05-24T09:15:53.254Z,22.09
2023-05-24T09:18:21.447Z,22.09
2023-05-24T09:20:53.334Z,22.13
2023-05-24T09:23:22.854Z,22.23
2023-05-24T09:25:51.048Z,22.37
2023-05-24T09:28:22.475Z,22.51
2023-05-24T09:31:02.810Z,22.66
2023-05-24T09:33:34.673Z,22.78
2023-05-24T09:36:05.720Z,22.92
2023-05-24T09:38:33.970Z,22.99
2023-05-24T09:41:08.862Z,23.05
2023-05-24T09:43:50.513Z,23.08
2023-05-24T09:46:23.985Z,23.11
2023-05-24T09:48:57.924Z,23.10
2023-05-24T09:51:26.330Z,23.07
2023-05-24T09:53:58.114Z,23.04
2023-05-24T09:56:27.744Z,22.91
2023-05-24T09:58:57.552Z,22.71
2023-05-24T10:01:54.165Z,22.48
2023-05-24T10:04:42.889Z,22.16
2023-05-24T10:07:14.100Z,21.88
2023-05-24T10:09:42.088Z,21.67
2023-05-24T10:12:10.513Z,21.53
2023-05-24T10:14:39.739Z,21.37
2023-05-24T10:17:11.275Z,21.23
2023-05-24T10:19:40.992Z,21.11
2023-05-24T10:22:10.362Z,21.01
2023-05-24T10:25:02.430Z,20.93
2023-05-24T10:27:31.824Z,20.89
2023-05-24T10:30:29.870Z,20.86
2023-05-24T10:32:57.837Z,20.82
2023-05-24T10:35:25.752Z,20.79
2023-05-24T10:37:54.860Z,20.78
2023-05-24T10:40:27.060Z,20.76
2023-05-24T10:42:55.046Z,20.74
2023-05-24T10:45:28.345Z,20.74
2023-05-24T10:47:59.477Z,20.77
2023-05-24T10:50:27.900Z,20.78
2023-05-24T10:53:14.492Z,20.78
2023-05-24T10:55:57.990Z,20.80
2023-05-24T10:58:47.573Z,20.85
2023-05-24T11:01:32.658Z,20.90
2023-05-24T11:04:17.233Z,20.98
2023-05-24T11:06:50.255Z,21.10
2023-05-24T11:09:20.829Z,21.19
2023-05-24T11:11:50.805Z,21.31
2023-05-24T11:14:20.950Z,21.41
2023-05-24T11:16:49.554Z,21.50
2023-05-24T11:19:22.199Z,21.56
2023-05-24T11:21:53.791Z,21.64
2023-05-24T11:24:22.402Z,21.69
2023-05-24T11:26:51.028Z,21.71
2023-05-24T11:29:21.689Z,21.71
2023-05-24T11:31:54.722Z,21.69
2023-05-24T11:34:24.448Z,21.67
2023-05-24T11:36:55.772Z,21.65
2023-05-24T11:39:26.005Z,21.64
2023-05-24T11:41:55.394Z,21.64
2023-05-24T11:44:24.082Z,21.62
2023-05-24T11:47:00.718Z,21.58
2023-05-24T11:49:28.988Z,21.57
2023-05-24T11:51:59.996Z,21.54
2023-05-24T11:54:29.344Z,21.54
2023-05-24T11:56:58.181Z,21.56
2023-05-24T11:59:27.625Z,21.57
2023-05-24T12:02:00.436Z,21.58
2023-05-24T12:04:29.109Z,21.60
2023-05-24T12:06:57.446Z,21.60
2023-05-24T12:09:25.542Z,21.60
2023-05-24T12:11:54.514Z,21.59
2023-05-24T12:14:31.852Z,21.60
2023-05-24T12:17:10.291Z,21.59
2023-05-24T12:19:40.477Z,21.61
2023-05-24T12:22:12.388Z,21.63
2023-05-24T12:24:41.616Z,21.64
2023-05-24T12:27:10.484Z,21.65
2023-05-24T12:29:41.147Z,21.64
2023-05-24T12:32:27.718Z,21.59
2023-05-24T12:34:56.835Z,21.58
2023-05-24T12:37:24.812Z,21.59
2023-05-24T12:39:58.646Z,21.61
2023-05-24T12:42:28.282Z,21.62
2023-05-24T12:44:57.992Z,21.63
2023-05-24T12:47:27.748Z,21.63
2023-05-24T12:49:55.806Z,21.63
2023-05-24T12:52:24.792Z,21.63
2023-05-24T12:54:52.925Z,21.62
2023-05-24T12:57:21.534Z,21.63
2023-05-24T12:59:59.885Z,21.68
2023-05-24T13:02:29.473Z,21.71
2023-05-24T13:05:00.680Z,21.73
2023-05-24T13:07:29.250Z,21.72
2023-05-24T13:09:57.796Z,21.72
2023-05-24T13:12:28.584Z,21.71
2023-05-24T13:14:57.496Z,21.68
2023-05-24T13:17:26.263Z,21.66
2023-05-24T13:19:54.576Z,21.63
2023-05-24T13:22:22.632Z,21.60
2023-05-24T13:24:56.529Z,21.59
2023-05-24T13:27:24.588Z,21.60
2023-05-24T13:32:28.448Z,21.63
2023-05-24T13:35:00.639Z,21.64
2023-05-24T13:37:30.757Z,21.65
2023-05-24T13:40:02.422Z,21.66
2023-05-24T13:42:34.949Z,21.67
2023-05-24T13:45:04.234Z,21.69
2023-05-24T13:47:41.482Z,21.69
2023-05-24T13:50:21.977Z,21.68
2023-05-24T13:53:05.398Z,21.67
2023-05-24T13:55:38.976Z,21.65
2023-05-24T13:58:08.606Z,21.64
2023-05-24T14:00:57.524Z,21.67
2023-05-24T14:03:27.613Z,21.66
2023-05-24T14:05:58.945Z,21.67
2023-05-24T14:08:31.424Z,21.66
2023-05-24T14:11:01.368Z,21.65
2023-05-24T14:16:06.950Z,21.62
2023-05-24T14:18:35.184Z,21.60
2023-05-24T14:21:03.369Z,21.57
2023-05-24T14:23:33.778Z,21.54
2023-05-24T14:26:05.550Z,21.52
2023-05-24T14:28:38.318Z,21.50
2023-05-24T14:31:06.139Z,21.52
2023-05-24T14:33:35.489Z,21.53
2023-05-24T14:36:04.329Z,21.55
2023-05-24T14:38:33.888Z,21.53
2023-05-24T14:41:04.506Z,21.52
2023-05-24T14:43:35.756Z,21.51
2023-05-24T14:46:04.791Z,21.48
2023-05-24T14:48:37.497Z,21.46
2023-05-24T14:51:10.667Z,21.47
2023-05-24T14:53:41.319Z,21.48
2023-05-24T14:56:10.440Z,21.51
2023-05-24T14:58:39.226Z,21.53
2023-05-24T15:01:08.552Z,21.53
2023-05-24T15:03:37.334Z,21.52
2023-05-24T15:06:08.814Z,21.49
2023-05-24T15:08:36.606Z,21.47
2023-05-24T15:11:05.315Z,21.43
2023-05-24T15:13:33.868Z,21.41
2023-05-24T15:16:06.918Z,21.41
2023-05-24T15:18:35.448Z,21.41
2023-05-24T15:21:03.519Z,21.43
2023-05-24T15:23:31.487Z,21.44
2023-05-24T15:26:00.501Z,21.46
2023-05-24T15:28:29.698Z,21.46
2023-05-24T15:30:57.997Z,21.47
2023-05-24T15:33:27.181Z,21.47
2023-05-24T15:35:55.211Z,21.50
2023-05-24T15:38:23.511Z,21.51
2023-05-24T15:40:52.106Z,21.52
2023-05-24T15:43:21.965Z,21.52
2023-05-24T15:45:52.386Z,21.49
2023-05-24T15:48:24.189Z,21.48
2023-05-24T15:51:39.896Z,21.46
2023-05-24T15:53:41.976Z,21.46
2023-05-24T15:56:10.275Z,21.46
2023-05-24T15:58:38.243Z,21.45
2023-05-24T16:01:08.417Z,21.46
2023-05-24T16:03:38.530Z,21.42
2023-05-24T16:06:09.862Z,21.33
2023-05-24T16:08:38.065Z,21.29
2023-05-24T16:11:08.545Z,21.28
2023-05-24T16:13:37.099Z,21.29
2023-05-24T16:16:05.567Z,21.31
2023-05-24T16:18:36.437Z,21.34
2023-05-24T16:21:05.733Z,21.36
2023-05-24T16:23:35.294Z,21.36
2023-05-24T16:26:03.617Z,21.35
2023-05-24T16:28:31.469Z,21.33
2023-05-24T16:31:02.735Z,21.30
2023-05-24T16:33:31.818Z,21.28
2023-05-24T16:36:03.611Z,21.26
2023-05-24T16:38:34.391Z,21.23
2023-05-24T16:41:02.941Z,21.23
2023-05-24T16:43:32.222Z,21.25
2023-05-24T16:46:01.855Z,21.26
2023-05-24T16:48:50.109Z,21.26
2023-05-24T16:51:18.924Z,21.25
2023-05-24T16:53:50.088Z,21.22
2023-05-24T16:56:21.957Z,21.22
2023-05-24T16:58:53.200Z,21.26
2023-05-24T17:01:22.477Z,21.28
2023-05-24T17:03:51.090Z,21.26
2023-05-24T17:06:20.789Z,21.22
2023-05-24T17:08:49.003Z,21.19
2023-05-24T17:11:19.812Z,21.15
2023-05-24T17:13:48.090Z,21.12
2023-05-24T17:16:16.377Z,21.09
2023-05-24T17:18:46.834Z,21.07
2023-05-24T17:21:15.464Z,21.03
2023-05-24T17:23:53.466Z,20.98
2023-05-24T17:26:25.468Z,20.92
2023-05-24T17:28:54.936Z,20.86
2023-05-24T17:31:24.131Z,20.80
2023-05-24T17:33:53.079Z,20.78
2023-05-24T17:36:21.868Z,20.79
2023-05-24T17:38:51.453Z,20.79
2023-05-24T17:41:20.219Z,20.78
2023-05-24T17:43:49.571Z,20.76
2023-05-24T17:46:18.071Z,20.74
2023-05-24T17:49:08.788Z,20.72
2023-05-24T17:51:59.653Z,20.69
2023-05-24T17:55:05.598Z,20.71
2023-05-24T17:57:53.426Z,20.74
2023-05-24T18:00:28.028Z,20.74
2023-05-24T18:03:23.386Z,20.73
2023-05-24T18:06:17.962Z,20.72
2023-05-24T18:09:16.262Z,20.70
2023-05-24T18:12:00.724Z,20.68
2023-05-24T18:14:44.738Z,20.66
2023-05-24T18:17:15.435Z,20.66
2023-05-24T18:19:46.130Z,20.65
2023-05-24T18:22:17.534Z,20.61
2023-05-24T18:24:46.645Z,20.58
2023-05-24T18:27:15.434Z,20.56
2023-05-24T18:29:44.095Z,20.56
2023-05-24T18:32:12.049Z,20.55
2023-05-24T18:34:40.597Z,20.53
2023-05-24T18:37:09.049Z,20.51
2023-05-24T18:39:37.458Z,20.46
2023-05-24T18:42:05.574Z,20.42
2023-05-24T18:44:37.200Z,20.40
2023-05-24T18:47:07.583Z,20.37
2023-05-24T18:49:36.653Z,20.34
2023-05-24T18:52:04.835Z,20.30
2023-05-24T18:54:33.996Z,20.27
2023-05-24T18:57:02.549Z,20.22
2023-05-24T18:59:31.933Z,20.16
2023-05-24T19:02:01.539Z,20.12
2023-05-24T19:04:30.203Z,20.10
2023-05-24T19:06:58.365Z,20.10
2023-05-24T19:09:26.057Z,20.09
2023-05-24T19:11:59.185Z,20.09
2023-05-24T19:14:27.557Z,20.07
2023-05-24T19:16:55.695Z,20.03
2023-05-24T19:19:23.960Z,20.00
2023-05-24T19:21:53.074Z,19.99
2023-05-24T19:24:24.128Z,20.01
2023-05-24T19:26:53.592Z,20.03
2023-05-24T19:29:41.442Z,20.02
2023-05-24T19:32:11.838Z,19.98
2023-05-24T19:34:42.501Z,19.96
2023-05-24T19:37:10.668Z,19.96
2023-05-24T19:39:39.984Z,19.94
2023-05-24T19:42:07.728Z,19.90
2023-05-24T19:44:35.597Z,19.87
2023-05-24T19:47:09.223Z,19.89
2023-05-24T19:49:39.101Z,19.91
2023-05-24T19:52:07.781Z,19.94
2023-05-24T19:54:37.494Z,19.95
2023-05-24T19:57:07.006Z,19.94
2023-05-24T19:59:34.902Z,19.89
2023-05-24T20:02:04.115Z,19.85
2023-05-24T20:04:32.463Z,19.81
2023-05-24T20:07:00.347Z,19.77
2023-05-24T20:09:28.820Z,19.76
2023-05-24T20:11:58.399Z,19.78
2023-05-24T20:14:30.015Z,19.80
2023-05-24T20:17:02.459Z,19.79
2023-05-24T20:19:30.751Z,19.79
2023-05-24T20:22:00.773Z,19.75
2023-05-24T20:24:29.470Z,19.71
2023-05-24T20:26:57.974Z,19.66
2023-05-24T20:29:26.976Z,19.62
2023-05-24T20:31:58.221Z,19.59
2023-05-24T20:34:28.471Z,19.56
2023-05-24T20:36:57.961Z,19.54
2023-05-24T20:39:29.503Z,19.54
2023-05-24T20:42:00.786Z,19.54
2023-05-24T20:44:29.468Z,19.55
2023-05-24T20:47:00.506Z,19.54
2023-05-24T20:49:31.706Z,19.55
2023-05-24T20:52:04.438Z,19.54
2023-05-24T20:54:35.817Z,19.53
2023-05-24T20:57:13.491Z,19.55
2023-05-24T20:59:45.429Z,19.55
2023-05-24T21:02:29.629Z,19.53
2023-05-24T21:05:04.290Z,19.54
2023-05-24T21:07:35.468Z,19.56
2023-05-24T21:10:08.850Z,19.57
2023-05-24T21:12:46.520Z,19.57
2023-05-24T21:15:16.473Z,19.52
2023-05-24T21:17:46.640Z,19.49
2023-05-24T21:20:20.487Z,19.46
2023-05-24T21:23:11.871Z,19.43
2023-05-24T21:25:43.695Z,19.41
2023-05-24T21:28:38.433Z,19.40
2023-05-24T21:31:10.512Z,19.38
2023-05-24T21:33:45.450Z,19.35
2023-05-24T21:36:38.475Z,19.33
2023-05-24T21:39:13.613Z,19.32
2023-05-24T21:41:44.496Z,19.30
2023-05-24T21:50:26.710Z,19.40
2023-05-24T21:52:55.798Z,19.37
2023-05-24T21:55:25.289Z,19.33
2023-05-24T21:57:54.647Z,19.26
2023-05-24T22:00:23.888Z,19.17
2023-05-24T22:02:52.737Z,19.08
2023-05-24T22:05:20.517Z,19.00
2023-05-24T22:07:49.771Z,18.94
2023-05-24T22:10:41.709Z,18.90
2023-05-24T22:13:09.911Z,18.90
2023-05-24T22:15:37.994Z,18.87
2023-05-24T22:18:17.871Z,18.84
2023-05-24T22:20:46.664Z,18.78
2023-05-24T22:23:15.658Z,18.73
2023-05-24T22:25:45.382Z,18.66
2023-05-24T22:28:13.369Z,18.59
2023-05-24T22:30:41.978Z,18.53
2023-05-24T22:33:31.290Z,18.51
2023-05-24T22:35:59.079Z,18.52
2023-05-24T22:38:27.946Z,18.50
2023-05-24T22:40:56.404Z,18.49
2023-05-24T22:43:24.492Z,18.47
2023-05-24T22:45:53.762Z,18.46
2023-05-24T22:48:26.721Z,18.41
2023-05-24T22:50:57.648Z,18.39
2023-05-24T22:53:26.518Z,18.36
2023-05-24T22:55:54.728Z,18.31
2023-05-24T22:58:24.366Z,18.26
2023-05-24T23:00:52.107Z,18.24
2023-05-24T23:03:22.174Z,18.23
2023-05-24T23:05:53.822Z,18.21
2023-05-24T23:08:29.810Z,18.19
2023-05-24T23:10:58.786Z,18.15
2023-05-24T23:13:28.576Z,18.11
2023-05-24T23:15:58.755Z,18.09
2023-05-24T23:18:28.435Z,18.09
2023-05-24T23:20:56.544Z,18.08
2023-05-24T23:23:26.186Z,18.08
2023-05-24T23:25:53.779Z,18.05
2023-05-24T23:28:22.842Z,18.03
2023-05-24T23:30:51.857Z,18.01
2023-05-24T23:33:20.443Z,18.01
2023-05-24T23:35:50.164Z,17.99
2023-05-24T23:38:21.903Z,17.97
2023-05-24T23:40:49.614Z,17.95
2023-05-24T23:43:17.429Z,17.94
2023-05-24T23:45:45.884Z,17.93
2023-05-24T23:48:23.194Z,17.92
2023-05-24T23:51:10.351Z,17.96
2023-05-24T23:53:41.957Z,18.00
2023-05-24T23:56:10.131Z,17.98
2023-05-24T23:58:38.499Z,17.96
